Time;durP1;ratioP1;P1;durP2;ratioP2;P2;SDS_P1;SDS_P2;PMS_P1;PMS_P2;Temp;Humidity;BMP_temperature;BMP_pressure;BME280_temperature;BME280_humidity;BME280_pressure;Samples;Min_cycle;Max_cycle;Signal;HPM_P1;HPM_P2
2022/06/25 00:01:20;;;;;;;;;;;;;;;22.39;100.00;97547.38;5028783;28;19925;-72
2022/06/25 00:03:47;;;;;;;;;;;;;;;21.71;100.00;97551.25;5046303;28;19947;-72
2022/06/25 00:06:14;;;;;;;;;;;;;;;22.19;100.00;97555.78;5046229;28;19937;-72
2022/06/25 00:08:40;;;;;;;;;;;;;;;22.37;100.00;97554.31;5046244;28;19925;-72
2022/06/25 00:12:31;;;;;;;;;;;;;;;22.39;100.00;97555.53;5046332;28;20020;-72
2022/06/25 00:13:54;;;;;;;;;;;;;;;22.29;100.00;97550.59;5028606;28;19994;-72
2022/06/25 00:16:20;;;;;;;;;;;;;;;22.30;100.00;97557.63;5046153;28;19925;-72
2022/06/25 00:18:47;;;;;;;;;;;;;;;21.73;100.00;97557.13;5046209;28;20461;-72
2022/06/25 00:21:13;;;;;;;;;;;;;;;22.04;100.00;97560.00;5055460;28;19948;-72
2022/06/25 00:23:40;;;;;;;;;;;;;;;22.03;100.00;97566.59;5058009;28;19920;-71
2022/06/25 00:26:06;;;;;;;;;;;;;;;21.63;100.00;97563.06;5038686;28;19928;-71
2022/06/25 00:28:34;;;;;;;;;;;;;;;21.91;100.00;97572.06;5054459;28;19920;-71
2022/06/25 00:31:00;;;;;;;;;;;;;;;22.16;100.00;97568.09;5054690;28;19985;-72
2022/06/25 00:33:27;;;;;;;;;;;;;;;22.14;100.00;97578.56;5057665;28;20356;-71
2022/06/25 00:35:53;;;;;;;;;;;;;;;22.20;100.00;97579.88;5040391;28;19947;-72
2022/06/25 00:38:20;;;;;;;;;;;;;;;22.32;100.00;97579.03;5055229;28;19984;-70
2022/06/25 00:40:46;;;;;;;;;;;;;;;22.35;100.00;97579.13;5054737;28;19929;-70
2022/06/25 00:43:13;;;;;;;;;;;;;;;22.22;100.00;97582.28;5056553;28;19927;-70
2022/06/25 00:45:44;;;;;;;;;;;;;;;22.40;100.00;97576.19;5057645;28;19968;-70
2022/06/25 00:48:10;;;;;;;;;;;;;;;22.36;100.00;97578.00;5036834;28;19931;-70
2022/06/25 00:50:37;;;;;;;;;;;;;;;22.42;100.00;97587.50;5058549;28;19967;-71
2022/06/25 00:53:05;;;;;;;;;;;;;;;22.33;100.00;97584.16;5057103;28;19928;-71
2022/06/25 00:55:32;;;;;;;;;;;;;;;22.33;100.00;97589.59;5057325;28;19951;-72
2022/06/25 00:58:00;;;;;;;;;;;;;;;22.19;100.00;97588.41;5057131;28;19932;-71
2022/06/25 01:00:26;;;;;;;;;;;;;;;22.27;100.00;97590.97;5053651;28;19975;-71
2022/06/25 01:02:55;;;;;;;;;;;;;;;22.27;100.00;97584.72;5053872;28;19967;-70
2022/06/25 01:05:21;;;;;;;;;;;;;;;22.02;100.00;97597.63;5056706;28;19925;-70
2022/06/25 01:07:48;;;;;;;;;;;;;;;21.99;100.00;97587.44;5057223;28;19994;-71
2022/06/25 01:10:15;;;;;;;;;;;;;;;21.93;100.00;97591.53;5054633;28;19952;-71
2022/06/25 01:12:42;;;;;;;;;;;;;;;22.16;100.00;97589.09;5053718;28;19932;-71
2022/06/25 01:15:09;;;;;;;;;;;;;;;22.09;100.00;97595.13;5055315;28;19925;-71
2022/06/25 01:17:36;;;;;;;;;;;;;;;22.15;100.00;97592.94;5057291;28;19996;-71
2022/06/25 01:20:05;;;;;;;;;;;;;;;21.90;100.00;97600.38;5038693;28;19932;-71
2022/06/25 01:22:33;;;;;;;;;;;;;;;22.00;100.00;97602.63;5054010;28;19925;-72
2022/06/25 01:25:00;;;;;;;;;;;;;;;22.18;100.00;97594.97;5054192;28;19932;-71
2022/06/25 01:27:26;;;;;;;;;;;;;;;22.23;100.00;97595.50;5057081;28;19925;-70
2022/06/25 01:29:53;;;;;;;;;;;;;;;22.12;100.00;97596.34;5057267;28;19921;-70
2022/06/25 01:32:19;;;;;;;;;;;;;;;22.15;100.00;97604.63;5054251;28;19925;-71
2022/06/25 01:34:46;;;;;;;;;;;;;;;22.24;100.00;97610.72;5053854;28;19925;-71
2022/06/25 01:37:12;;;;;;;;;;;;;;;21.99;100.00;97606.47;5055737;28;19936;-71
2022/06/25 01:39:40;;;;;;;;;;;;;;;22.05;100.00;97610.53;5057244;28;19921;-71
2022/06/25 01:42:58;;;;;;;;;;;;;;;22.00;100.00;97608.06;5055538;28;19925;-71
2022/06/25 01:44:53;;;;;;;;;;;;;;;21.90;100.00;97613.97;5053224;28;19921;-70
2022/06/25 01:47:19;;;;;;;;;;;;;;;21.93;100.00;97613.28;5055852;28;20326;-71
2022/06/25 01:49:45;;;;;;;;;;;;;;;21.99;100.00;97611.91;5056713;28;19925;-71
2022/06/25 01:52:13;;;;;;;;;;;;;;;22.05;100.00;97613.25;5062109;28;19921;-70
2022/06/25 01:54:41;;;;;;;;;;;;;;;21.93;100.00;97610.56;5053205;28;19926;-71
2022/06/25 01:57:08;;;;;;;;;;;;;;;22.05;100.00;97607.81;5054277;28;20106;-71
2022/06/25 01:59:34;;;;;;;;;;;;;;;22.03;100.00;97604.66;5040294;28;19925;-71
2022/06/25 02:02:01;;;;;;;;;;;;;;;22.13;100.00;97604.16;5060087;28;19925;-72
2022/06/25 02:04:28;;;;;;;;;;;;;;;21.97;100.00;97597.88;5057303;28;19928;-71
2022/06/25 02:06:54;;;;;;;;;;;;;;;21.99;100.00;97599.13;5057087;28;19944;-71
2022/06/25 02:09:20;;;;;;;;;;;;;;;22.04;100.00;97611.66;5059886;28;19964;-71
2022/06/25 02:11:48;;;;;;;;;;;;;;;22.12;100.00;97610.75;5042802;28;20461;-72
2022/06/25 02:14:15;;;;;;;;;;;;;;;22.10;100.00;97613.00;5058346;28;19967;-72
2022/06/25 02:16:41;;;;;;;;;;;;;;;22.08;100.00;97618.00;5039710;28;20287;-71
2022/06/25 02:19:08;;;;;;;;;;;;;;;22.10;100.00;97618.44;5059014;28;19955;-71
2022/06/25 02:21:35;;;;;;;;;;;;;;;22.11;100.00;97620.03;5068549;28;19925;-72
2022/06/25 02:24:01;;;;;;;;;;;;;;;22.06;100.00;97617.56;5060622;28;19948;-71
2022/06/25 02:26:27;;;;;;;;;;;;;;;22.10;100.00;97623.88;5057744;28;20074;-72
2022/06/25 02:28:55;;;;;;;;;;;;;;;21.91;100.00;97626.44;5039311;28;19921;-72
2022/06/25 02:31:22;;;;;;;;;;;;;;;21.93;100.00;97635.03;5060084;28;19925;-72
2022/06/25 02:33:48;;;;;;;;;;;;;;;21.69;100.00;97630.41;5060022;28;19971;-72
2022/06/25 02:36:15;;;;;;;;;;;;;;;21.62;100.00;97629.41;5057598;28;19996;-71
2022/06/25 02:38:41;;;;;;;;;;;;;;;21.72;100.00;97640.59;5056405;28;19932;-72
2022/06/25 02:41:07;;;;;;;;;;;;;;;21.84;100.00;97640.59;5057564;28;19924;-72
2022/06/25 02:43:35;;;;;;;;;;;;;;;21.91;100.00;97629.94;5059856;28;19925;-72
2022/06/25 02:46:03;;;;;;;;;;;;;;;21.54;100.00;97639.22;5059472;28;20086;-71
2022/06/25 02:48:29;;;;;;;;;;;;;;;21.63;100.00;97631.78;5056121;28;19926;-71
2022/06/25 02:50:56;;;;;;;;;;;;;;;21.56;100.00;97636.19;5063684;28;19925;-71
2022/06/25 02:53:22;;;;;;;;;;;;;;;21.60;100.00;97643.31;5059793;28;19932;-71
2022/06/25 03:01:14;;;;;;;;;;;;;;;21.74;100.00;97648.41;5040866;28;19948;-71
2022/06/25 03:03:40;;;;;;;;;;;;;;;21.71;100.00;97644.44;5060153;28;19956;-71
2022/06/25 03:06:07;;;;;;;;;;;;;;;21.57;100.00;97648.66;5058455;28;19924;-71
2022/06/25 03:08:34;;;;;;;;;;;;;;;21.29;100.00;97657.44;5056665;28;19948;-71
2022/06/25 03:11:00;;;;;;;;;;;;;;;21.56;100.00;97647.06;5056020;28;19952;-71
2022/06/25 03:13:27;;;;;;;;;;;;;;;21.58;100.00;97647.50;5059944;28;19928;-72
2022/06/25 03:15:53;;;;;;;;;;;;;;;21.63;100.00;97644.56;5059602;28;19925;-72
2022/06/25 03:18:21;;;;;;;;;;;;;;;21.39;100.00;97653.50;5038680;28;19975;-72
2022/06/25 03:20:50;;;;;;;;;;;;;;;21.61;100.00;97654.97;5061832;28;19925;-71
2022/06/25 03:23:16;;;;;;;;;;;;;;;21.70;100.00;97652.94;5059060;28;19967;-72
2022/06/25 03:25:43;;;;;;;;;;;;;;;21.64;100.00;97657.00;5041224;28;19924;-73
2022/06/25 03:28:09;;;;;;;;;;;;;;;21.64;100.00;97654.28;5057765;28;19992;-70
2022/06/25 03:30:35;;;;;;;;;;;;;;;21.60;100.00;97653.41;5055645;28;19925;-71
2022/06/25 03:33:02;;;;;;;;;;;;;;;21.43;100.00;97660.66;5055959;28;19925;-71
2022/06/25 03:35:30;;;;;;;;;;;;;;;21.62;100.00;97660.09;5059095;28;19928;-72
2022/06/25 03:37:57;;;;;;;;;;;;;;;21.66;100.00;97660.19;5058954;28;20323;-71
2022/06/25 03:40:23;;;;;;;;;;;;;;;21.50;100.00;97655.44;5055535;28;19948;-71
2022/06/25 03:42:50;;;;;;;;;;;;;;;21.36;100.00;97654.97;5055219;28;19921;-72
2022/06/25 03:45:16;;;;;;;;;;;;;;;21.55;100.00;97670.72;5057885;28;19925;-71
2022/06/25 03:47:43;;;;;;;;;;;;;;;21.46;100.00;97670.03;5040785;28;20011;-71
2022/06/25 03:50:10;;;;;;;;;;;;;;;21.44;100.00;97667.69;5057828;28;19932;-71
2022/06/25 03:52:37;;;;;;;;;;;;;;;21.23;100.00;97671.63;5061957;28;20285;-71
2022/06/25 03:55:04;;;;;;;;;;;;;;;21.41;100.00;97673.00;5056103;28;19927;-71
2022/06/25 03:57:30;;;;;;;;;;;;;;;21.52;100.00;97674.91;5040966;28;19948;-72
2022/06/25 03:59:57;;;;;;;;;;;;;;;21.43;100.00;97676.94;5040816;28;19943;-72
2022/06/25 04:02:23;;;;;;;;;;;;;;;21.43;100.00;97685.09;5037662;28;20008;-70
2022/06/25 04:04:49;;;;;;;;;;;;;;;21.51;100.00;97677.94;5055395;28;19941;-71
2022/06/25 04:07:16;;;;;;;;;;;;;;;21.32;100.00;97680.47;5057405;28;20367;-71
2022/06/25 04:09:44;;;;;;;;;;;;;;;21.36;100.00;97682.13;5058617;28;19924;-72
2022/06/25 04:12:11;;;;;;;;;;;;;;;21.39;100.00;97680.66;5038773;28;19924;-71
2022/06/25 04:14:38;;;;;;;;;;;;;;;21.11;100.00;97677.81;5054872;28;19921;-71
2022/06/25 04:17:04;;;;;;;;;;;;;;;21.13;100.00;97678.28;5055516;28;19925;-71
2022/06/25 04:19:39;;;;;;;;;;;;;;;21.29;100.00;97681.13;5058476;28;19992;-71
2022/06/25 04:22:06;;;;;;;;;;;;;;;21.09;100.00;97676.56;5064479;28;19925;-72
2022/06/25 04:24:32;;;;;;;;;;;;;;;20.91;100.00;97667.78;5054556;28;19933;-71
2022/06/25 04:27:00;;;;;;;;;;;;;;;20.63;100.00;97681.16;5054947;28;19929;-71
2022/06/25 04:29:25;;;;;;;;;;;;;;;21.00;100.00;97684.78;5058406;28;19986;-71
2022/06/25 04:31:52;;;;;;;;;;;;;;;21.02;100.00;97690.66;5057895;28;19925;-71
2022/06/25 04:34:18;;;;;;;;;;;;;;;21.13;100.00;97683.72;5055305;28;19981;-71
2022/06/25 04:36:44;;;;;;;;;;;;;;;20.99;100.00;97697.56;5054699;28;19991;-72
2022/06/25 04:39:11;;;;;;;;;;;;;;;21.22;100.00;97689.03;5056290;28;19933;-71
2022/06/25 04:41:37;;;;;;;;;;;;;;;21.19;100.00;97687.78;5058072;28;19924;-72
2022/06/25 04:44:05;;;;;;;;;;;;;;;21.12;100.00;97698.41;5039193;28;19932;-72
2022/06/25 04:46:32;;;;;;;;;;;;;;;20.96;100.00;97698.22;5054133;28;19926;-71
2022/06/25 04:48:58;;;;;;;;;;;;;;;20.96;100.00;97695.50;5054388;28;19980;-72
2022/06/25 04:51:25;;;;;;;;;;;;;;;21.09;100.00;97690.13;5039986;28;19936;-71
2022/06/25 04:53:57;;;;;;;;;;;;;;;21.08;100.00;97697.44;5057933;28;19925;-71
2022/06/25 04:56:24;;;;;;;;;;;;;;;21.34;100.00;97695.28;5045903;28;19929;-72
2022/06/25 04:58:51;;;;;;;;;;;;;;;20.97;100.00;97704.44;5028238;28;20400;-72
2022/06/25 05:01:19;;;;;;;;;;;;;;;21.27;100.00;97700.47;5045782;28;19925;-71
2022/06/25 05:03:45;;;;;;;;;;;;;;;21.40;100.00;97699.34;5045957;28;19929;-71
2022/06/25 05:06:12;;;;;;;;;;;;;;;21.01;100.00;97692.56;5035952;28;19992;-72
2022/06/25 05:08:38;;;;;;;;;;;;;;;20.66;100.00;97706.81;5045786;28;19925;-71
2022/06/25 05:11:05;;;;;;;;;;;;;;;20.53;100.00;97705.19;5036151;28;19997;-71
2022/06/25 05:13:31;;;;;;;;;;;;;;;20.72;100.00;97710.91;5054016;28;19964;-70
2022/06/25 05:15:58;;;;;;;;;;;;;;;20.96;100.00;97716.44;5053992;28;19932;-71
2022/06/25 05:18:25;;;;;;;;;;;;;;;20.98;100.00;97722.34;5045758;28;19925;-71
2022/06/25 05:20:52;;;;;;;;;;;;;;;20.77;100.00;97726.97;5052473;28;20353;-71
2022/06/25 05:23:19;;;;;;;;;;;;;;;21.24;100.00;97716.63;5039664;28;20027;-71
2022/06/25 05:25:45;;;;;;;;;;;;;;;21.22;100.00;97718.91;5057694;28;19925;-72
2022/06/25 05:28:12;;;;;;;;;;;;;;;21.42;100.00;97723.47;5055951;28;19986;-71
2022/06/25 05:30:39;;;;;;;;;;;;;;;21.01;100.00;97727.88;5054376;28;19928;-72
2022/06/25 05:33:05;;;;;;;;;;;;;;;20.82;100.00;97734.94;5054066;28;20201;-72
2022/06/25 05:35:34;;;;;;;;;;;;;;;20.69;100.00;97741.44;5060957;28;19924;-72
2022/06/25 05:38:00;;;;;;;;;;;;;;;20.79;100.00;97741.03;5043267;28;19936;-72
2022/06/25 05:40:26;;;;;;;;;;;;;;;20.75;100.00;97740.09;5057556;28;19960;-72
2022/06/25 05:42:53;;;;;;;;;;;;;;;20.95;100.00;97747.44;5057806;28;19929;-71
2022/06/25 05:45:20;;;;;;;;;;;;;;;21.08;100.00;97745.53;5060480;28;19933;-71
2022/06/25 05:47:48;;;;;;;;;;;;;;;21.21;100.00;97758.06;5061162;28;20276;-72
2022/06/25 05:50:15;;;;;;;;;;;;;;;21.25;100.00;97751.63;5060247;28;20407;-73
2022/06/25 05:52:42;;;;;;;;;;;;;;;21.29;100.00;97754.47;5045454;28;19925;-71
2022/06/25 05:55:09;;;;;;;;;;;;;;;21.04;100.00;97756.28;5057547;28;19948;-72
2022/06/25 05:57:35;;;;;;;;;;;;;;;21.32;100.00;97756.50;5042937;28;19929;-71
2022/06/25 06:00:02;;;;;;;;;;;;;;;21.58;100.00;97761.63;5060352;28;19974;-71
2022/06/25 06:02:30;;;;;;;;;;;;;;;21.52;100.00;97755.63;5057319;28;19952;-72
2022/06/25 06:04:56;;;;;;;;;;;;;;;21.56;100.00;97753.84;5057487;28;20173;-72
2022/06/25 06:07:23;;;;;;;;;;;;;;;21.57;100.00;97763.56;5060611;28;19936;-73
2022/06/25 06:09:50;;;;;;;;;;;;;;;21.12;100.00;97758.16;5060963;28;19925;-72
2022/06/25 06:12:17;;;;;;;;;;;;;;;21.50;100.00;97761.41;5058030;28;19932;-71
2022/06/25 06:14:43;;;;;;;;;;;;;;;21.47;100.00;97759.38;5057227;28;20361;-72
2022/06/25 06:17:10;;;;;;;;;;;;;;;21.52;100.00;97761.88;5058700;28;19964;-71
2022/06/25 06:19:36;;;;;;;;;;;;;;;21.52;100.00;97761.88;5060333;28;19947;-72
2022/06/25 06:22:03;;;;;;;;;;;;;;;21.29;100.00;97768.81;5049569;28;19929;-71
2022/06/25 06:24:29;;;;;;;;;;;;;;;21.40;100.00;97769.19;5057113;28;19933;-71
2022/06/25 06:26:57;;;;;;;;;;;;;;;21.58;100.00;97767.88;5055993;28;19925;-71
2022/06/25 06:29:24;;;;;;;;;;;;;;;21.44;100.00;97772.84;5060636;28;19928;-72
2022/06/25 06:31:52;;;;;;;;;;;;;;;21.61;100.00;97771.81;5059494;28;20160;-72
2022/06/25 06:34:19;;;;;;;;;;;;;;;21.58;100.00;97765.16;5057300;28;19944;-71
2022/06/25 06:36:45;;;;;;;;;;;;;;;21.43;100.00;97772.03;5056763;28;19929;-72
2022/06/25 06:39:12;;;;;;;;;;;;;;;21.63;100.00;97762.22;5058271;28;19948;-72
2022/06/25 06:41:38;;;;;;;;;;;;;;;21.30;100.00;97762.25;5042056;28;19961;-71
2022/06/25 06:44:06;;;;;;;;;;;;;;;21.56;100.00;97766.63;5058924;28;19925;-73
2022/06/25 06:46:32;;;;;;;;;;;;;;;21.77;100.00;97773.56;5038390;28;19929;-71
2022/06/25 06:48:59;;;;;;;;;;;;;;;21.44;100.00;97772.84;5057319;28;19971;-72
2022/06/25 06:51:25;;;;;;;;;;;;;;;21.39;100.00;97771.13;5067806;28;19935;-72
2022/06/25 06:53:52;;;;;;;;;;;;;;;21.48;100.00;97777.25;5059944;28;19924;-72
2022/06/25 06:56:18;;;;;;;;;;;;;;;21.33;100.00;97780.59;5057012;28;19921;-72
2022/06/25 06:58:44;;;;;;;;;;;;;;;21.25;100.00;97778.00;5056192;28;19931;-71
2022/06/25 07:01:13;;;;;;;;;;;;;;;21.50;100.00;97769.56;5057693;28;19960;-72
2022/06/25 07:03:40;;;;;;;;;;;;;;;21.53;100.00;97776.25;5042010;28;19924;-72
2022/06/25 07:06:06;;;;;;;;;;;;;;;21.61;100.00;97774.53;5058705;28;19990;-72
2022/06/25 07:08:33;;;;;;;;;;;;;;;21.54;100.00;97775.09;5056304;28;20056;-72
2022/06/25 07:10:59;;;;;;;;;;;;;;;21.35;100.00;97777.56;5056237;28;19944;-73
2022/06/25 07:13:26;;;;;;;;;;;;;;;21.51;100.00;97773.84;5059758;28;19989;-72
2022/06/25 07:15:52;;;;;;;;;;;;;;;21.70;100.00;97778.75;5060222;28;20368;-71
2022/06/25 07:18:20;;;;;;;;;;;;;;;21.77;100.00;97780.91;5056916;28;19925;-72
2022/06/25 07:20:46;;;;;;;;;;;;;;;21.74;100.00;97778.88;5044586;28;19929;-72
2022/06/25 07:23:13;;;;;;;;;;;;;;;21.72;100.00;97775.72;5059657;28;19931;-72
2022/06/25 07:25:39;;;;;;;;;;;;;;;21.80;100.00;97777.50;5059882;28;19929;-72
2022/06/25 07:28:06;;;;;;;;;;;;;;;21.78;100.00;97780.59;5040400;28;19921;-72
2022/06/25 07:30:32;;;;;;;;;;;;;;;21.87;100.00;97778.56;5054250;28;19987;-72
2022/06/25 07:32:58;;;;;;;;;;;;;;;21.73;100.00;97788.16;5055480;28;19952;-71
2022/06/25 07:35:26;;;;;;;;;;;;;;;21.91;100.00;97784.91;5047413;28;19929;-71
2022/06/25 07:37:52;;;;;;;;;;;;;;;22.10;100.00;97778.91;5047358;28;19925;-71
2022/06/25 07:40:21;;;;;;;;;;;;;;;22.11;100.00;97777.78;5047091;28;19929;-72
2022/06/25 07:42:48;;;;;;;;;;;;;;;22.09;100.00;97769.19;5047595;28;19928;-77
2022/06/25 07:45:14;;;;;;;;;;;;;;;22.41;100.00;97775.59;5046760;28;20326;-75
2022/06/25 07:47:41;;;;;;;;;;;;;;;22.48;100.00;97760.28;5047173;28;19947;-73
2022/06/25 07:52:53;;;;;;;;;;;;;;;22.32;100.00;97756.66;5059593;28;20019;-72
2022/06/25 07:55:20;;;;;;;;;;;;;;;22.28;100.00;97758.47;5057929;28;19959;-72
2022/06/25 07:57:46;;;;;;;;;;;;;;;22.62;100.00;97759.13;5058095;28;19971;-71
2022/06/25 08:00:13;;;;;;;;;;;;;;;22.51;100.00;97759.59;5038751;28;20612;-73
2022/06/25 08:02:40;;;;;;;;;;;;;;;22.69;100.00;97762.06;5037580;28;19925;-72
2022/06/25 08:05:06;;;;;;;;;;;;;;;22.82;100.00;97748.06;5056170;28;20398;-72
2022/06/25 08:07:33;;;;;;;;;;;;;;;22.64;100.00;97754.09;5058906;28;20010;-71
2022/06/25 08:10:01;;;;;;;;;;;;;;;22.81;100.00;97751.16;5058796;28;19947;-72
2022/06/25 08:12:27;;;;;;;;;;;;;;;22.81;100.00;97745.69;5055344;28;19928;-72
2022/06/25 08:14:54;;;;;;;;;;;;;;;22.87;100.00;97752.47;5055133;28;20004;-73
2022/06/25 08:17:21;;;;;;;;;;;;;;;22.99;100.00;97755.91;5040486;28;19925;-72
2022/06/25 08:19:47;;;;;;;;;;;;;;;22.95;100.00;97751.53;5059201;28;19925;-72
2022/06/25 08:22:14;;;;;;;;;;;;;;;22.77;100.00;97756.50;5046087;28;19929;-71
2022/06/25 08:24:40;;;;;;;;;;;;;;;22.81;100.00;97753.88;5054772;28;19936;-72
2022/06/25 08:27:10;;;;;;;;;;;;;;;22.72;100.00;97745.03;5055790;28;19925;-73
2022/06/25 08:29:36;;;;;;;;;;;;;;;22.73;100.00;97749.34;5040269;28;19925;-72
2022/06/25 08:32:03;;;;;;;;;;;;;;;22.94;100.00;97749.94;5039679;28;20019;-72
2022/06/25 08:34:29;;;;;;;;;;;;;;;22.61;100.00;97741.97;5054702;28;20005;-72
2022/06/25 08:36:56;;;;;;;;;;;;;;;23.10;100.00;97748.06;5054653;28;19951;-72
2022/06/25 08:39:22;;;;;;;;;;;;;;;23.11;100.00;97747.72;5057539;28;19935;-71
2022/06/25 08:41:48;;;;;;;;;;;;;;;23.07;100.00;97746.03;5058145;28;19921;-72
2022/06/25 08:44:16;;;;;;;;;;;;;;;23.20;100.00;97747.56;5055755;28;19925;-73
2022/06/25 08:46:43;;;;;;;;;;;;;;;22.94;100.00;97744.50;5054497;28;19927;-72
2022/06/25 08:49:10;;;;;;;;;;;;;;;23.31;100.00;97751.34;5055489;28;19925;-72
2022/06/25 08:51:38;;;;;;;;;;;;;;;23.42;100.00;97757.91;5066083;28;20020;-73
2022/06/25 08:54:07;;;;;;;;;;;;;;;23.52;100.00;97759.31;5057076;28;20010;-73
2022/06/25 08:56:34;;;;;;;;;;;;;;;23.43;100.00;97756.75;5054271;28;19926;-72
2022/06/25 08:59:01;;;;;;;;;;;;;;;23.37;100.00;97752.66;5054458;28;19936;-73
2022/06/25 09:01:28;;;;;;;;;;;;;;;22.93;100.00;97745.66;5057859;28;19948;-72
2022/06/25 09:03:55;;;;;;;;;;;;;;;23.10;100.00;97748.06;5042905;28;19928;-73
2022/06/25 09:06:23;;;;;;;;;;;;;;;22.73;100.00;97743.91;5058789;28;19940;-72
2022/06/25 09:09:04;;;;;;;;;;;;;;;23.03;100.00;97750.56;5057327;28;19928;-72
2022/06/25 09:11:30;;;;;;;;;;;;;;;23.25;100.00;97746.50;5031597;28;19960;-72
2022/06/25 09:14:18;;;;;;;;;;;;;;;22.87;100.00;97747.81;5032782;28;19925;-72
2022/06/25 09:16:48;;;;;;;;;;;;;;;23.00;100.00;97741.16;5047967;28;19931;-72
2022/06/25 09:19:27;;;;;;;;;;;;;;;22.76;100.00;97740.47;5057743;28;19972;-73
2022/06/25 09:21:53;;;;;;;;;;;;;;;23.00;100.00;97740.38;5066973;28;19920;-71
2022/06/25 09:24:20;;;;;;;;;;;;;;;23.20;100.00;97741.31;5037863;28;19952;-73
2022/06/25 09:26:50;;;;;;;;;;;;;;;23.12;100.00;97738.38;5056269;28;19941;-72
2022/06/25 09:29:17;;;;;;;;;;;;;;;23.19;100.00;97734.25;5057961;28;19925;-72
2022/06/25 09:31:43;;;;;;;;;;;;;;;23.39;100.00;97744.16;5058242;28;19921;-72
2022/06/25 09:34:11;;;;;;;;;;;;;;;23.31;100.00;97745.88;5039359;28;19980;-72
2022/06/25 09:36:38;;;;;;;;;;;;;;;23.37;100.00;97733.59;5037363;28;19926;-72
2022/06/25 09:39:05;;;;;;;;;;;;;;;23.66;99.67;97732.41;5055135;28;19971;-72
2022/06/25 09:41:46;;;;;;;;;;;;;;;23.65;100.00;97737.06;5058220;28;19925;-74
2022/06/25 09:44:16;;;;;;;;;;;;;;;23.71;100.00;97728.59;5056011;28;19925;-72
2022/06/25 09:46:53;;;;;;;;;;;;;;;23.83;100.00;97734.00;5054459;28;19999;-72
2022/06/25 09:49:24;;;;;;;;;;;;;;;24.04;100.00;97734.50;5057078;28;19929;-72
2022/06/25 09:51:58;;;;;;;;;;;;;;;24.09;99.19;97729.53;5065568;28;19925;-72
2022/06/25 09:54:25;;;;;;;;;;;;;;;24.08;100.00;97722.50;5044479;28;20338;-72
2022/06/25 09:56:51;;;;;;;;;;;;;;;24.00;98.85;97725.41;5045573;28;19979;-73
2022/06/25 09:59:18;;;;;;;;;;;;;;;23.93;99.59;97720.59;5045257;28;20040;-73
2022/06/25 10:01:44;;;;;;;;;;;;;;;23.94;100.00;97726.84;5046148;28;19925;-72
2022/06/25 10:04:11;;;;;;;;;;;;;;;23.97;100.00;97720.69;5046171;28;20476;-72
2022/06/25 10:06:40;;;;;;;;;;;;;;;23.94;100.00;97724.13;5046621;28;19936;-72
2022/06/25 10:09:08;;;;;;;;;;;;;;;23.74;100.00;97720.53;5047667;28;19936;-73
2022/06/25 10:11:35;;;;;;;;;;;;;;;23.95;100.00;97717.53;5029787;28;19941;-72
2022/06/25 10:14:02;;;;;;;;;;;;;;;24.25;99.78;97721.34;5046743;28;19981;-72
2022/06/25 10:16:30;;;;;;;;;;;;;;;24.42;99.30;97725.59;5046504;28;19925;-73
2022/06/25 10:18:56;;;;;;;;;;;;;;;24.28;100.00;97715.19;5045280;28;20339;-72
2022/06/25 10:21:24;;;;;;;;;;;;;;;23.99;100.00;97719.16;5058836;28;19928;-72
2022/06/25 10:23:53;;;;;;;;;;;;;;;24.40;98.41;97719.72;5042463;28;19924;-72
2022/06/25 10:26:20;;;;;;;;;;;;;;;24.61;93.73;97718.22;5057796;28;19939;-73
2022/06/25 10:28:47;;;;;;;;;;;;;;;24.73;93.30;97713.78;5057386;28;19983;-73
2022/06/25 10:31:16;;;;;;;;;;;;;;;24.94;91.78;97703.31;5059317;28;19979;-73
2022/06/25 10:33:53;;;;;;;;;;;;;;;24.95;81.65;97699.41;5060586;28;19996;-73
2022/06/25 10:36:39;;;;;;;;;;;;;;;24.50;87.16;97700.84;5039909;28;19929;-73
2022/06/25 10:39:20;;;;;;;;;;;;;;;24.60;87.40;97694.78;5058519;28;19936;-73
2022/06/25 10:44:47;;;;;;;;;;;;;;;24.92;87.50;97698.19;5049284;28;19925;-73
2022/06/25 10:47:13;;;;;;;;;;;;;;;24.78;90.44;97694.38;5049045;28;20047;-72
2022/06/25 10:49:39;;;;;;;;;;;;;;;24.55;90.58;97680.63;5048323;28;19948;-72
2022/06/25 10:52:07;;;;;;;;;;;;;;;24.51;93.47;97696.94;5064738;28;19967;-72
2022/06/25 10:54:37;;;;;;;;;;;;;;;24.73;96.02;97694.66;5056675;28;19935;-72
2022/06/25 10:57:05;;;;;;;;;;;;;;;24.51;99.23;97688.75;5057279;28;19932;-72
2022/06/25 10:59:46;;;;;;;;;;;;;;;24.68;99.61;97685.59;5059872;28;19925;-74
2022/06/25 11:02:15;;;;;;;;;;;;;;;24.55;100.00;97686.09;5040607;28;19967;-73
2022/06/25 11:04:48;;;;;;;;;;;;;;;24.62;98.26;97681.59;5056478;28;19967;-74
2022/06/25 11:07:17;;;;;;;;;;;;;;;24.76;96.32;97680.28;5058095;28;19940;-72
2022/06/25 11:09:51;;;;;;;;;;;;;;;24.75;95.96;97682.22;5059362;28;20492;-73
2022/06/25 11:12:18;;;;;;;;;;;;;;;24.87;94.58;97681.31;5056769;28;19925;-73
2022/06/25 11:14:49;;;;;;;;;;;;;;;24.83;96.16;97685.91;5055697;28;19925;-74
2022/06/25 11:17:17;;;;;;;;;;;;;;;24.60;100.00;97678.41;5040896;28;19925;-73
2022/06/25 11:19:43;;;;;;;;;;;;;;;24.65;99.55;97680.88;5059820;28;19925;-73
2022/06/25 11:22:10;;;;;;;;;;;;;;;24.93;96.41;97682.59;5056926;28;19921;-73
2022/06/25 11:28:47;;;;;;;;;;;;;;;24.86;97.99;97674.25;5056245;28;19964;-73
2022/06/25 11:30:07;;;;;;;;;;;;;;;25.11;90.38;97670.84;5057018;28;20020;-73
2022/06/25 11:32:36;;;;;;;;;;;;;;;25.03;89.79;97674.59;5054425;28;19975;-71
2022/06/25 11:35:02;;;;;;;;;;;;;;;24.91;90.25;97671.25;5055621;28;19925;-73
2022/06/25 11:37:30;;;;;;;;;;;;;;;25.20;87.82;97667.84;5058692;28;19929;-73
2022/06/25 11:39:57;;;;;;;;;;;;;;;25.31;88.26;97678.97;5058627;28;19924;-72
2022/06/25 11:42:23;;;;;;;;;;;;;;;25.05;90.47;97672.28;5055211;28;19963;-73
2022/06/25 11:44:51;;;;;;;;;;;;;;;24.92;89.81;97664.59;5054868;28;19993;-73
2022/06/25 11:47:19;;;;;;;;;;;;;;;25.20;89.13;97671.38;5057457;28;20227;-73
2022/06/25 11:49:47;;;;;;;;;;;;;;;24.87;91.85;97667.66;5058487;28;19924;-73
2022/06/25 11:52:14;;;;;;;;;;;;;;;24.86;91.69;97666.06;5063832;28;19929;-73
2022/06/25 11:54:42;;;;;;;;;;;;;;;25.33;88.64;97671.19;5055457;28;19925;-72
2022/06/25 11:57:09;;;;;;;;;;;;;;;25.43;85.83;97660.44;5039005;28;19925;-73
2022/06/25 11:59:36;;;;;;;;;;;;;;;25.23;91.26;97661.66;5059430;28;19925;-73
2022/06/25 12:02:04;;;;;;;;;;;;;;;25.13;91.15;97665.78;5058567;28;19940;-72
2022/06/25 12:04:31;;;;;;;;;;;;;;;25.40;89.90;97663.13;5055491;28;20027;-72
2022/06/25 12:07:00;;;;;;;;;;;;;;;25.34;84.44;97656.38;5053569;28;20015;-72
2022/06/25 12:09:26;;;;;;;;;;;;;;;24.91;90.44;97652.13;5055163;28;19948;-72
2022/06/25 12:11:53;;;;;;;;;;;;;;;25.34;86.67;97659.91;5053962;28;19929;-73
2022/06/25 12:14:20;;;;;;;;;;;;;;;25.30;88.44;97666.47;5056766;28;19932;-72
2022/06/25 12:16:47;;;;;;;;;;;;;;;25.33;88.62;97666.53;5058849;28;19924;-72
2022/06/25 12:19:14;;;;;;;;;;;;;;;25.29;88.61;97659.41;5056694;28;19944;-71
2022/06/25 12:21:40;;;;;;;;;;;;;;;25.25;89.01;97653.91;5060655;28;19952;-73
2022/06/25 12:24:12;;;;;;;;;;;;;;;25.28;90.08;97663.31;5056695;28;19924;-73
2022/06/25 12:26:41;;;;;;;;;;;;;;;25.27;89.82;97662.50;5053211;28;19947;-72
2022/06/25 12:29:11;;;;;;;;;;;;;;;25.37;88.46;97650.97;5055606;28;19925;-72
2022/06/25 12:31:38;;;;;;;;;;;;;;;25.30;87.53;97656.31;5057836;28;20763;-73
2022/06/25 12:34:05;;;;;;;;;;;;;;;25.10;88.21;97657.50;5057765;28;19939;-73
2022/06/25 12:36:35;;;;;;;;;;;;;;;24.98;91.44;97644.81;5055250;28;19932;-74
2022/06/25 12:39:01;;;;;;;;;;;;;;;24.93;91.48;97641.59;5054850;28;19961;-73
2022/06/25 12:41:42;;;;;;;;;;;;;;;25.07;89.75;97647.31;5058534;28;19925;-72
2022/06/25 12:44:14;;;;;;;;;;;;;;;25.19;88.95;97641.69;5054616;28;19989;-73
2022/06/25 12:46:41;;;;;;;;;;;;;;;25.21;87.72;97647.56;5053139;28;19935;-75
2022/06/25 12:49:10;;;;;;;;;;;;;;;24.88;89.17;97641.91;5054633;28;20357;-72
2022/06/25 12:51:37;;;;;;;;;;;;;;;24.85;88.25;97645.38;5048422;28;19925;-72
2022/06/25 12:54:03;;;;;;;;;;;;;;;25.23;83.64;97642.53;5040213;28;19924;-73